createdAt,value
2023-11-01T00:00:43.613Z,5.70
2023-11-01T00:01:43.578Z,7.70
2023-11-01T00:02:43.581Z,6.90
2023-11-01T00:03:43.618Z,5.40
2023-11-01T00:04:43.466Z,6.00
2023-11-01T00:05:43.462Z,6.60
2023-11-01T00:06:43.409Z,7.10
2023-11-01T00:07:43.377Z,6.80
2023-11-01T00:08:43.399Z,5.50
2023-11-01T00:09:43.318Z,6.30
2023-11-01T00:10:43.290Z,6.50
2023-11-01T00:11:43.313Z,7.40
2023-11-01T00:12:43.235Z,6.20
2023-11-01T00:13:43.201Z,6.60
2023-11-01T00:14:43.227Z,9.50
2023-11-01T00:15:43.140Z,8.60
2023-11-01T00:16:43.215Z,8.40
2023-11-01T00:17:43.135Z,7.80
2023-11-01T00:18:43.066Z,8.30
2023-11-01T00:19:43.023Z,10.00
2023-11-01T00:20:43.066Z,7.60
2023-11-01T00:21:42.965Z,9.80
2023-11-01T00:22:42.940Z,8.30
2023-11-01T00:23:42.934Z,7.40
2023-11-01T00:24:44.586Z,9.50
2023-11-01T00:25:42.851Z,8.70
2023-11-01T00:26:42.838Z,7.70
2023-11-01T00:27:42.789Z,8.40
2023-11-01T00:28:42.762Z,8.00
2023-11-01T00:29:42.782Z,8.30
2023-11-01T00:30:42.702Z,8.80
2023-11-01T00:31:42.676Z,9.80
2023-11-01T00:32:42.710Z,9.10
2023-11-01T00:33:42.637Z,9.90
2023-11-01T00:34:42.583Z,9.10
2023-11-01T00:35:42.594Z,8.50
2023-11-01T00:36:42.532Z,8.50
2023-11-01T00:37:42.497Z,9.10
2023-11-01T00:38:42.479Z,9.20
2023-11-01T00:39:42.440Z,9.70
2023-11-01T00:40:42.413Z,9.40
2023-11-01T00:41:42.394Z,9.10
2023-11-01T00:42:42.347Z,11.40
2023-11-01T00:43:42.317Z,10.20
2023-11-01T00:44:42.326Z,10.90
2023-11-01T00:45:42.257Z,10.00
2023-11-01T00:46:42.312Z,9.40
2023-11-01T00:47:42.372Z,11.60
2023-11-01T00:48:42.195Z,10.00
2023-11-01T00:49:42.140Z,9.70
2023-11-01T00:50:42.166Z,10.30
2023-11-01T00:51:42.083Z,10.30
2023-11-01T00:52:42.055Z,10.10
2023-11-01T00:53:42.103Z,10.80
2023-11-01T00:54:41.994Z,9.80
2023-11-01T00:55:41.966Z,10.50
2023-11-01T00:56:42.009Z,10.70
2023-11-01T00:57:41.913Z,10.60
2023-11-01T00:58:41.879Z,10.00
2023-11-01T00:59:41.875Z,11.40
2023-11-01T01:00:41.818Z,11.10
2023-11-01T01:01:41.788Z,12.50
2023-11-01T01:02:41.823Z,10.70
2023-11-01T01:03:41.810Z,10.40
2023-11-01T01:04:41.719Z,10.30
2023-11-01T01:05:41.736Z,9.90
2023-11-01T01:06:41.645Z,10.80
2023-11-01T01:07:41.614Z,9.80
2023-11-01T01:08:41.620Z,10.00
2023-11-01T01:09:41.559Z,11.10
2023-11-01T01:10:41.522Z,8.70
2023-11-01T01:11:41.505Z,9.80
2023-11-01T01:12:41.464Z,10.70
2023-11-01T01:13:41.435Z,10.00
2023-11-01T01:14:41.471Z,9.20
2023-11-01T01:15:41.395Z,11.90
2023-11-01T01:16:41.354Z,10.10
2023-11-01T01:17:41.369Z,9.90
2023-11-01T01:18:41.286Z,10.20
2023-11-01T01:19:41.264Z,9.20
2023-11-01T01:20:41.305Z,10.10
2023-11-01T01:21:41.204Z,9.90
2023-11-01T01:22:41.179Z,8.70
2023-11-01T01:23:41.169Z,10.70
2023-11-01T01:24:41.118Z,11.50
2023-11-01T01:25:41.088Z,11.10
2023-11-01T01:26:41.077Z,11.00
2023-11-01T01:27:41.018Z,12.50
2023-11-01T01:28:40.992Z,11.40
2023-11-01T01:29:41.008Z,10.00
2023-11-01T01:30:40.936Z,10.10
2023-11-01T01:31:40.944Z,8.80
2023-11-01T01:32:40.940Z,9.30
2023-11-01T01:33:40.841Z,9.70
2023-11-01T01:34:40.824Z,9.00
2023-11-01T01:35:40.802Z,9.20
2023-11-01T01:36:40.772Z,9.10
2023-11-01T01:37:40.725Z,9.30
2023-11-01T01:38:40.756Z,8.80
2023-11-01T01:39:40.675Z,9.10
2023-11-01T01:40:40.637Z,10.00
2023-11-01T01:41:40.629Z,8.60
2023-11-01T01:42:40.598Z,9.30
2023-11-01T01:43:40.734Z,8.60
2023-11-01T01:44:40.579Z,9.10
2023-11-01T01:45:40.499Z,10.60
2023-11-01T01:46:40.460Z,8.20
2023-11-01T01:47:40.503Z,7.90
2023-11-01T01:48:40.406Z,8.50
2023-11-01T01:49:45.434Z,9.10
2023-11-01T01:50:40.374Z,8.90
2023-11-01T01:51:40.312Z,8.60
2023-11-01T01:52:40.302Z,7.80
2023-11-01T01:53:40.329Z,8.70
2023-11-01T01:54:40.226Z,8.50
2023-11-01T01:55:40.194Z,9.20
2023-11-01T01:56:40.179Z,8.20
2023-11-01T01:57:40.146Z,10.10
2023-11-01T01:58:40.104Z,8.50
2023-11-01T01:59:40.229Z,8.50
2023-11-01T02:00:40.047Z,9.50
2023-11-01T02:01:44.960Z,7.30
2023-11-01T02:02:40.165Z,8.80
2023-11-01T02:03:40.082Z,8.90
2023-11-01T02:04:39.928Z,8.30
2023-11-01T02:05:39.937Z,9.10
2023-11-01T02:06:39.875Z,7.40
2023-11-01T02:07:39.837Z,8.50
2023-11-01T02:08:39.901Z,8.50
2023-11-01T02:09:39.779Z,9.30
2023-11-01T02:10:39.759Z,7.90
2023-11-01T02:11:39.730Z,9.90
2023-11-01T02:12:39.703Z,8.10
2023-11-01T02:13:39.662Z,10.40
2023-11-01T02:14:39.646Z,8.20
2023-11-01T02:15:39.616Z,8.60
2023-11-01T02:16:39.575Z,8.70
2023-11-01T02:17:39.601Z,11.20
2023-11-01T02:18:39.520Z,9.10
2023-11-01T02:19:39.483Z,8.50
2023-11-01T02:20:39.517Z,9.50
2023-11-01T02:21:39.423Z,9.00
2023-11-01T02:22:39.394Z,8.00
2023-11-01T02:23:39.401Z,8.50
2023-11-01T02:24:39.364Z,9.90
2023-11-01T02:25:39.308Z,8.00
2023-11-01T02:26:39.315Z,9.30
2023-11-01T02:27:39.243Z,8.70
2023-11-01T02:28:39.214Z,8.90
2023-11-01T02:29:39.254Z,7.80
2023-11-01T02:30:39.157Z,9.20
2023-11-01T02:31:40.764Z,8.10
2023-11-01T02:32:39.173Z,10.40
2023-11-01T02:33:39.067Z,8.10
2023-11-01T02:34:39.036Z,8.80
2023-11-01T02:35:39.036Z,9.40
2023-11-01T02:36:38.989Z,9.40
2023-11-01T02:37:38.959Z,8.90
2023-11-01T02:38:38.969Z,8.70
2023-11-01T02:39:38.891Z,10.70
2023-11-01T02:40:38.884Z,8.00
2023-11-01T02:41:38.845Z,9.60
2023-11-01T02:42:38.801Z,9.00
2023-11-01T02:43:38.770Z,9.30
2023-11-01T02:44:38.769Z,9.00
2023-11-01T02:45:38.724Z,10.90
2023-11-01T02:46:38.683Z,8.00
2023-11-01T02:47:38.697Z,8.80
2023-11-01T02:48:38.620Z,9.30
2023-11-01T02:49:38.591Z,8.70
2023-11-01T02:50:38.642Z,9.20
2023-11-01T02:51:38.540Z,9.70
2023-11-01T02:52:38.503Z,8.70
2023-11-01T02:53:38.500Z,9.20
2023-11-01T02:54:38.453Z,9.30
2023-11-01T02:55:38.442Z,9.40
2023-11-01T02:56:38.460Z,9.40
2023-11-01T02:57:38.358Z,10.00
2023-11-01T02:58:38.323Z,8.60
2023-11-01T02:59:38.341Z,9.30
2023-11-01T03:00:38.279Z,10.50
2023-11-01T03:01:38.302Z,9.20
2023-11-01T03:02:38.260Z,9.60
2023-11-01T03:03:38.197Z,8.80
2023-11-01T03:04:38.143Z,9.70
2023-11-01T03:05:38.139Z,10.30
2023-11-01T03:06:38.087Z,8.60
2023-11-01T03:07:38.095Z,9.10
2023-11-01T03:08:38.045Z,9.30
2023-11-01T03:09:37.995Z,8.90
2023-11-01T03:10:37.980Z,11.30
2023-11-01T03:11:37.970Z,10.40
2023-11-01T03:12:37.926Z,9.20
2023-11-01T03:13:37.876Z,9.00
2023-11-01T03:14:37.858Z,8.90
2023-11-01T03:15:37.817Z,9.20
2023-11-01T03:16:37.788Z,8.80
2023-11-01T03:17:37.999Z,9.50
2023-11-01T03:18:37.743Z,9.00
2023-11-01T03:19:37.697Z,10.20
2023-11-01T03:20:37.697Z,8.60
2023-11-01T03:21:37.639Z,10.40
2023-11-01T03:22:37.609Z,8.70
2023-11-01T03:23:37.638Z,9.40
2023-11-01T03:24:37.548Z,8.30
2023-11-01T03:25:37.520Z,7.30
2023-11-01T03:26:37.521Z,8.50
2023-11-01T03:27:37.472Z,9.60
2023-11-01T03:28:37.448Z,9.50
2023-11-01T03:29:37.430Z,8.00
2023-11-01T03:30:37.374Z,8.00
2023-11-01T03:31:37.340Z,7.90
2023-11-01T03:32:37.377Z,9.30
2023-11-01T03:33:37.329Z,9.90
2023-11-01T03:34:37.311Z,9.30
2023-11-01T03:35:37.243Z,9.60
2023-11-01T03:36:37.189Z,8.30
2023-11-01T03:37:37.177Z,8.00
2023-11-01T03:38:37.175Z,7.20
2023-11-01T03:39:37.100Z,8.70
2023-11-01T03:40:37.073Z,8.90
2023-11-01T03:41:37.059Z,9.10
2023-11-01T03:42:37.019Z,8.30
2023-11-01T03:43:37.008Z,9.50
2023-11-01T03:44:37.004Z,9.40
2023-11-01T03:45:36.933Z,11.30
2023-11-01T03:46:36.937Z,8.00
2023-11-01T03:47:36.979Z,7.70
2023-11-01T03:48:36.832Z,8.80
2023-11-01T03:49:36.847Z,7.80
2023-11-01T03:50:36.822Z,8.90
2023-11-01T03:51:36.752Z,10.40
2023-11-01T03:52:36.719Z,7.80
2023-11-01T03:53:36.703Z,8.00
2023-11-01T03:54:36.654Z,7.70
2023-11-01T03:55:36.630Z,7.30
2023-11-01T03:56:36.637Z,9.60
2023-11-01T03:57:36.566Z,7.50
2023-11-01T03:58:36.533Z,8.30
2023-11-01T03:59:36.526Z,8.10
2023-11-01T04:00:36.496Z,7.50
2023-11-01T04:01:36.465Z,7.40
2023-11-01T04:02:36.533Z,9.10
2023-11-01T04:03:36.455Z,6.90
2023-11-01T04:04:36.354Z,7.90
2023-11-01T04:05:36.351Z,7.00
2023-11-01T04:06:36.299Z,7.80
2023-11-01T04:07:36.283Z,8.30
2023-11-01T04:08:36.285Z,7.90
2023-11-01T04:09:36.216Z,7.60
2023-11-01T04:10:36.186Z,8.00
2023-11-01T04:11:36.189Z,8.20
2023-11-01T04:12:36.121Z,7.30
2023-11-01T04:13:36.084Z,8.00
2023-11-01T04:14:36.092Z,7.40
2023-11-01T04:15:36.026Z,6.70
2023-11-01T04:16:36.170Z,6.50
2023-11-01T04:17:36.037Z,6.60
2023-11-01T04:18:36.076Z,6.60
2023-11-01T04:19:35.950Z,7.00
2023-11-01T04:20:35.883Z,7.40
2023-11-01T04:21:35.853Z,9.60
2023-11-01T04:22:35.817Z,8.90
2023-11-01T04:23:35.914Z,6.30
2023-11-01T04:24:35.761Z,7.30
2023-11-01T04:25:35.728Z,6.20
2023-11-01T04:26:35.709Z,6.50
2023-11-01T04:27:35.668Z,6.10
2023-11-01T04:28:35.639Z,5.80
2023-11-01T04:29:35.633Z,9.00
2023-11-01T04:30:35.578Z,6.40
2023-11-01T04:31:35.590Z,6.90
2023-11-01T04:32:35.602Z,6.60
2023-11-01T04:33:35.526Z,6.20
2023-11-01T04:34:35.522Z,6.70
2023-11-01T04:35:35.460Z,7.00
2023-11-01T04:36:35.396Z,8.90
2023-11-01T04:37:35.369Z,6.70
2023-11-01T04:38:35.408Z,5.90
2023-11-01T04:39:35.306Z,6.40
2023-11-01T04:40:35.280Z,7.20
2023-11-01T04:41:35.250Z,5.70
2023-11-01T04:42:35.218Z,5.90
2023-11-01T04:43:35.187Z,7.40
2023-11-01T04:44:35.299Z,5.20
2023-11-01T04:45:35.127Z,6.60
2023-11-01T04:46:35.101Z,7.00
2023-11-01T04:47:35.119Z,7.00
2023-11-01T04:48:35.096Z,7.20
2023-11-01T04:49:35.010Z,8.40
2023-11-01T04:50:35.016Z,6.60
2023-11-01T04:51:34.966Z,7.20
2023-11-01T04:52:34.916Z,6.30
2023-11-01T04:53:34.887Z,5.80
2023-11-01T04:54:34.865Z,6.00
2023-11-01T04:55:34.833Z,6.80
2023-11-01T04:56:34.878Z,6.60
2023-11-01T04:57:34.769Z,7.10
2023-11-01T04:58:34.738Z,6.10
2023-11-01T04:59:34.843Z,5.50
2023-11-01T05:00:34.676Z,5.30
2023-11-01T05:01:34.730Z,8.10
2023-11-01T05:02:34.708Z,6.00
2023-11-01T05:03:34.648Z,7.50
2023-11-01T05:04:34.576Z,5.30
2023-11-01T05:05:34.567Z,5.80
2023-11-01T05:06:34.504Z,6.10
2023-11-01T05:07:34.536Z,6.40
2023-11-01T05:08:34.517Z,7.30
2023-11-01T05:09:34.406Z,5.80
2023-11-01T05:10:34.383Z,6.80
2023-11-01T05:11:34.365Z,5.70
2023-11-01T05:12:34.315Z,5.50
2023-11-01T05:13:34.313Z,6.20
2023-11-01T05:14:34.281Z,5.70
2023-11-01T05:15:34.224Z,6.30
2023-11-01T05:16:34.207Z,6.20
2023-11-01T05:17:34.256Z,5.60
2023-11-01T05:18:34.213Z,5.40
2023-11-01T05:19:34.105Z,5.50
2023-11-01T05:20:34.134Z,6.10
2023-11-01T05:21:34.045Z,5.60
2023-11-01T05:22:34.016Z,5.90
2023-11-01T05:23:34.023Z,7.50
2023-11-01T05:24:33.954Z,5.70
2023-11-01T05:25:33.933Z,6.70
2023-11-01T05:26:33.936Z,5.80
2023-11-01T05:27:33.940Z,8.40
2023-11-01T05:28:33.841Z,5.30
2023-11-01T05:29:33.823Z,5.90
2023-11-01T05:30:33.818Z,5.70
2023-11-01T05:31:33.742Z,5.40
2023-11-01T05:32:33.780Z,7.50
2023-11-01T05:33:33.715Z,6.30
2023-11-01T05:34:33.653Z,7.20
2023-11-01T05:35:33.638Z,7.70
2023-11-01T05:36:33.614Z,6.50
2023-11-01T05:37:33.563Z,8.10
2023-11-01T05:38:33.536Z,6.50
2023-11-01T05:39:33.502Z,6.40
2023-11-01T05:40:33.469Z,6.10
2023-11-01T05:41:33.464Z,5.90
2023-11-01T05:42:33.415Z,8.10
2023-11-01T05:43:33.392Z,6.80
2023-11-01T05:44:33.394Z,7.30
2023-11-01T05:45:33.326Z,7.30
2023-11-01T05:46:33.355Z,6.80
2023-11-01T05:47:33.346Z,7.40
2023-11-01T05:48:33.289Z,6.70
2023-11-01T05:49:33.206Z,6.70
2023-11-01T05:50:33.202Z,7.00
2023-11-01T05:51:33.143Z,7.50
2023-11-01T05:52:33.132Z,6.50
2023-11-01T05:53:33.135Z,8.00
2023-11-01T05:54:33.058Z,6.40
2023-11-01T05:55:42.600Z,8.60
2023-11-01T05:56:33.036Z,7.20
2023-11-01T05:57:32.963Z,8.00
2023-11-01T05:58:32.933Z,7.60
2023-11-01T05:59:32.945Z,9.50
2023-11-01T06:00:32.889Z,11.00
2023-11-01T06:01:32.853Z,7.20
2023-11-01T06:02:32.924Z,6.90
2023-11-01T06:03:33.023Z,7.00
2023-11-01T06:04:32.779Z,7.70
2023-11-01T06:05:32.744Z,5.70
2023-11-01T06:06:32.688Z,7.10
2023-11-01T06:07:32.664Z,5.60
2023-11-01T06:08:32.708Z,5.80
2023-11-01T06:09:32.596Z,7.20
2023-11-01T06:10:32.576Z,5.30
2023-11-01T06:11:32.587Z,6.20
2023-11-01T06:12:32.512Z,5.30
2023-11-01T06:13:32.479Z,5.30
2023-11-01T06:14:32.519Z,6.50
2023-11-01T06:15:32.432Z,5.10
2023-11-01T06:16:32.396Z,5.50
2023-11-01T06:17:32.504Z,4.70
2023-11-01T06:18:32.331Z,5.40
2023-11-01T06:19:32.297Z,5.20
2023-11-01T06:20:32.308Z,5.30
2023-11-01T06:21:32.240Z,6.00
2023-11-01T06:22:32.204Z,5.40
2023-11-01T06:23:32.278Z,5.10
2023-11-01T06:25:32.297Z,4.30
2023-11-01T06:26:32.229Z,4.90
2023-11-01T06:27:32.051Z,5.90
2023-11-01T06:28:32.024Z,5.80
2023-11-01T06:29:32.009Z,7.40
2023-11-01T06:30:31.973Z,5.50
2023-11-01T06:31:31.934Z,6.80
2023-11-01T06:32:32.030Z,5.60
2023-11-01T06:33:31.974Z,6.70
2023-11-01T06:34:31.885Z,7.10
2023-11-01T06:35:31.824Z,7.10
2023-11-01T06:36:31.783Z,6.20
2023-11-01T06:37:31.756Z,6.40
2023-11-01T06:38:31.748Z,6.00
2023-11-01T06:39:31.710Z,7.60
2023-11-01T06:40:31.659Z,7.20
2023-11-01T06:41:31.682Z,6.70
2023-11-01T06:42:31.614Z,6.50
2023-11-01T06:43:31.572Z,7.50
2023-11-01T06:44:31.611Z,7.70
2023-11-01T06:45:31.511Z,7.00
2023-11-01T06:46:31.511Z,8.30
2023-11-01T06:47:31.510Z,8.50
2023-11-01T06:48:31.480Z,7.80
2023-11-01T06:49:32.478Z,9.70
2023-11-01T06:50:31.364Z,10.90
2023-11-01T06:51:31.329Z,9.00
2023-11-01T06:52:31.314Z,8.10
2023-11-01T06:53:31.298Z,9.00
2023-11-01T06:54:31.239Z,8.70
2023-11-01T06:55:31.229Z,11.80
2023-11-01T06:56:31.228Z,8.10
2023-11-01T06:57:31.177Z,8.70
2023-11-01T06:58:31.121Z,8.70
2023-11-01T06:59:31.100Z,6.80
2023-11-01T07:00:31.066Z,8.10
2023-11-01T07:01:31.033Z,6.30
2023-11-01T07:02:31.065Z,6.50
2023-11-01T07:03:31.052Z,6.60
2023-11-01T07:04:30.998Z,8.10
2023-11-01T07:05:30.922Z,8.90
2023-11-01T07:06:30.883Z,7.00
2023-11-01T07:07:30.848Z,8.50
2023-11-01T07:08:30.849Z,7.30
2023-11-01T07:09:30.797Z,8.50
2023-11-01T07:10:30.762Z,6.90
2023-11-01T07:11:30.727Z,8.50
2023-11-01T07:12:30.705Z,6.60
2023-11-01T07:13:30.691Z,7.50
2023-11-01T07:14:30.655Z,6.50
2023-11-01T07:15:30.624Z,6.60
2023-11-01T07:16:30.577Z,6.30
2023-11-01T07:17:30.645Z,8.30
2023-11-01T07:18:30.546Z,7.70
2023-11-01T07:19:30.493Z,7.00
2023-11-01T07:20:30.490Z,6.60
2023-11-01T07:21:30.435Z,5.30
2023-11-01T07:22:30.403Z,4.30
2023-11-01T07:23:30.457Z,5.40
2023-11-01T07:24:30.342Z,6.60
2023-11-01T07:25:30.308Z,4.70
2023-11-01T07:26:30.302Z,7.30
2023-11-01T07:27:30.252Z,5.20
2023-11-01T07:28:30.223Z,6.30
2023-11-01T07:29:30.229Z,5.80
2023-11-01T07:30:30.170Z,6.00
2023-11-01T07:31:30.156Z,5.70
2023-11-01T07:32:30.154Z,6.80
2023-11-01T07:33:30.142Z,5.40
2023-11-01T07:34:30.053Z,5.30
2023-11-01T07:35:30.078Z,4.70
2023-11-01T07:36:30.001Z,5.50
2023-11-01T07:37:29.962Z,7.40
2023-11-01T07:38:29.941Z,5.80
2023-11-01T07:39:29.904Z,6.80
2023-11-01T07:40:29.899Z,7.90
2023-11-01T07:41:29.867Z,5.70
2023-11-01T07:42:29.815Z,6.50
2023-11-01T07:43:29.786Z,6.30
2023-11-01T07:44:29.786Z,5.70
2023-11-01T07:45:29.766Z,6.20
2023-11-01T07:46:29.699Z,5.50
2023-11-01T07:47:29.729Z,7.60
2023-11-01T07:48:29.741Z,5.20
2023-11-01T07:49:29.613Z,6.00
2023-11-01T07:50:29.616Z,7.20
2023-11-01T07:51:29.553Z,7.20
2023-11-01T07:52:29.531Z,7.30
2023-11-01T07:53:29.521Z,5.50
2023-11-01T07:54:29.488Z,5.80
2023-11-01T07:55:29.438Z,7.30
2023-11-01T07:56:29.437Z,8.20
2023-11-01T07:57:29.380Z,7.80
2023-11-01T07:58:29.359Z,6.80
2023-11-01T07:59:29.422Z,5.30
2023-11-01T08:00:29.296Z,6.10
2023-11-01T08:01:29.327Z,6.00
2023-11-01T08:02:29.296Z,5.80
2023-11-01T08:03:29.308Z,6.10
2023-11-01T08:04:29.302Z,6.10
2023-11-01T08:05:29.232Z,9.90
2023-11-01T08:06:29.120Z,6.40
2023-11-01T08:07:29.088Z,7.50
2023-11-01T08:08:29.135Z,6.20
2023-11-01T08:09:29.031Z,7.30
2023-11-01T08:10:29.001Z,6.10
2023-11-01T08:11:28.992Z,4.40
2023-11-01T08:12:28.949Z,5.20
2023-11-01T08:13:28.913Z,4.40
2023-11-01T08:14:28.920Z,6.70
2023-11-01T08:15:28.857Z,6.50
2023-11-01T08:16:29.239Z,4.40
2023-11-01T08:17:28.921Z,4.90
2023-11-01T08:18:28.783Z,5.60
2023-11-01T08:19:28.737Z,5.60
2023-11-01T08:20:28.732Z,6.50
2023-11-01T08:21:28.682Z,6.70
2023-11-01T08:22:28.660Z,6.10
2023-11-01T08:23:28.638Z,4.80
2023-11-01T08:24:28.596Z,5.00
2023-11-01T08:25:28.567Z,4.30
2023-11-01T08:26:28.558Z,4.30
2023-11-01T08:27:28.512Z,4.00
2023-11-01T08:28:28.476Z,4.10
2023-11-01T08:29:28.466Z,5.50
2023-11-01T08:30:28.426Z,4.60
2023-11-01T08:31:28.423Z,4.30
2023-11-01T08:32:28.400Z,3.90
2023-11-01T08:33:28.430Z,3.60
2023-11-01T08:34:28.399Z,5.20
2023-11-01T08:35:28.329Z,4.90
2023-11-01T08:36:28.244Z,5.40
2023-11-01T08:37:28.220Z,6.40
2023-11-01T08:38:28.209Z,4.30
2023-11-01T08:39:28.166Z,6.40
2023-11-01T08:40:28.128Z,5.00
2023-11-01T08:41:28.107Z,6.40
2023-11-01T08:42:28.078Z,4.20
2023-11-01T08:43:28.042Z,4.30
2023-11-01T08:44:28.047Z,6.00
2023-11-01T08:45:27.993Z,5.90
2023-11-01T08:46:27.984Z,4.30
2023-11-01T08:47:28.005Z,5.70
2023-11-01T08:48:28.001Z,6.90
2023-11-01T08:49:27.892Z,6.80
2023-11-01T08:50:27.853Z,5.70
2023-11-01T08:51:27.814Z,5.50
2023-11-01T08:52:27.782Z,6.60
2023-11-01T08:53:29.438Z,6.00
2023-11-01T08:54:27.726Z,5.40
2023-11-01T08:55:27.698Z,5.90
2023-11-01T08:56:27.696Z,8.20
2023-11-01T08:57:27.646Z,4.70
2023-11-01T08:58:27.610Z,4.30
2023-11-01T08:59:27.594Z,5.70
2023-11-01T09:00:39.180Z,5.50
2023-11-01T09:01:27.600Z,7.90
2023-11-01T09:02:27.609Z,4.40
2023-11-01T09:03:27.556Z,4.40
2023-11-01T09:04:27.479Z,5.10
2023-11-01T09:05:27.487Z,4.00
2023-11-01T09:06:27.390Z,5.40
2023-11-01T09:07:27.362Z,4.30
2023-11-01T09:08:27.359Z,6.70
2023-11-01T09:09:27.300Z,5.20
2023-11-01T09:10:27.270Z,4.70
2023-11-01T09:11:27.250Z,5.10
2023-11-01T09:12:27.264Z,5.60
2023-11-01T09:13:27.190Z,3.90
2023-11-01T09:14:27.187Z,4.00
2023-11-01T09:15:27.128Z,5.50
2023-11-01T09:16:27.101Z,4.80
2023-11-01T09:17:27.174Z,4.60
2023-11-01T09:18:27.110Z,4.90
2023-11-01T09:19:27.017Z,5.50
2023-11-01T09:20:27.068Z,5.70
2023-11-01T09:21:26.977Z,4.20
2023-11-01T09:22:26.928Z,4.00
2023-11-01T09:23:26.925Z,4.00
2023-11-01T09:24:26.872Z,5.90
2023-11-01T09:25:26.907Z,4.30
2023-11-01T09:26:26.881Z,4.30
2023-11-01T09:27:26.790Z,6.30
2023-11-01T09:28:26.778Z,5.20
2023-11-01T09:29:26.742Z,3.90
2023-11-01T09:30:26.714Z,5.20
2023-11-01T09:31:26.675Z,4.00
2023-11-01T09:32:26.784Z,5.30
2023-11-01T09:33:26.725Z,4.70
2023-11-01T09:34:26.640Z,5.60
2023-11-01T09:35:26.698Z,5.00
2023-11-01T09:36:26.535Z,4.40
2023-11-01T09:37:26.526Z,3.70
2023-11-01T09:38:26.503Z,3.80
2023-11-01T09:39:26.473Z,3.80
2023-11-01T09:40:26.422Z,3.80
2023-11-01T09:41:26.415Z,4.00
2023-11-01T09:42:26.367Z,4.00
2023-11-01T09:43:26.338Z,4.70
2023-11-01T09:44:26.364Z,4.50
2023-11-01T09:45:26.324Z,5.00
2023-11-01T09:46:26.298Z,4.10
2023-11-01T09:47:26.325Z,4.30
2023-11-01T09:48:26.336Z,4.70
2023-11-01T09:49:26.185Z,4.60
2023-11-01T09:50:26.173Z,5.40
2023-11-01T09:51:26.138Z,3.90
2023-11-01T09:52:26.095Z,5.10
2023-11-01T09:53:26.159Z,6.10
2023-11-01T09:54:26.034Z,5.10
2023-11-01T09:55:26.015Z,3.90
2023-11-01T09:56:26.040Z,4.30
2023-11-01T09:57:25.960Z,4.10
2023-11-01T09:58:25.925Z,4.00
2023-11-01T09:59:25.961Z,5.20
2023-11-01T10:00:25.873Z,5.30
2023-11-01T10:01:25.864Z,5.20
2023-11-01T10:02:26.015Z,5.10
2023-11-01T10:03:25.860Z,4.40
2023-11-01T10:04:25.790Z,6.40
2023-11-01T10:05:25.845Z,5.10
2023-11-01T10:06:25.697Z,5.60
2023-11-01T10:07:25.679Z,5.60
2023-11-01T10:08:25.681Z,6.20
2023-11-01T10:09:25.644Z,4.90
2023-11-01T10:10:25.596Z,5.40
2023-11-01T10:11:25.890Z,4.90
2023-11-01T10:12:25.531Z,5.50
2023-11-01T10:13:25.509Z,4.70
2023-11-01T10:14:25.496Z,5.30
2023-11-01T10:15:25.489Z,4.60
2023-11-01T10:16:25.479Z,3.80
2023-11-01T10:17:25.418Z,4.50
2023-11-01T10:18:25.435Z,4.40
2023-11-01T10:19:25.342Z,4.20
2023-11-01T10:20:25.341Z,4.90
2023-11-01T10:21:25.288Z,4.10
2023-11-01T10:22:25.264Z,5.20
2023-11-01T10:23:25.249Z,3.90
2023-11-01T10:24:25.207Z,3.80
2023-11-01T10:25:26.751Z,6.40
2023-11-01T10:26:25.151Z,4.30
2023-11-01T10:27:25.124Z,4.90
2023-11-01T10:28:25.093Z,4.80
2023-11-01T10:29:25.083Z,4.40
2023-11-01T10:30:25.041Z,4.90
2023-11-01T10:31:25.774Z,4.30
2023-11-01T10:32:25.136Z,4.30
2023-11-01T10:33:25.261Z,5.10
2023-11-01T10:34:24.937Z,4.60
2023-11-01T10:35:25.086Z,4.60
2023-11-01T10:36:24.880Z,5.30
2023-11-01T10:37:26.943Z,5.50
2023-11-01T10:38:24.835Z,4.20
2023-11-01T10:39:24.801Z,5.10
2023-11-01T10:40:24.779Z,5.60
2023-11-01T10:41:24.850Z,5.70
2023-11-01T10:42:24.721Z,5.50
2023-11-01T10:43:24.699Z,5.50
2023-11-01T10:44:24.858Z,6.40
2023-11-01T10:45:24.636Z,6.60
2023-11-01T10:46:24.607Z,5.50
2023-11-01T10:47:24.594Z,5.80
2023-11-01T10:48:24.698Z,7.00
2023-11-01T10:49:24.528Z,8.40
2023-11-01T10:50:24.499Z,6.00
2023-11-01T10:51:24.474Z,4.90
2023-11-01T10:52:24.445Z,4.90
2023-11-01T10:53:24.428Z,7.10
2023-11-01T10:54:24.481Z,4.50
2023-11-01T10:55:24.367Z,5.00
2023-11-01T10:56:24.338Z,5.20
2023-11-01T10:57:24.336Z,5.50
2023-11-01T10:58:24.288Z,4.70
2023-11-01T10:59:24.258Z,4.20
2023-11-01T11:00:24.237Z,7.40
2023-11-01T11:01:24.205Z,5.20
2023-11-01T11:02:24.206Z,4.60
2023-11-01T11:03:24.303Z,5.50
2023-11-01T11:04:24.462Z,4.60
2023-11-01T11:05:24.097Z,6.00
2023-11-01T11:06:24.069Z,4.90
2023-11-01T11:07:24.955Z,4.20
2023-11-01T11:08:24.015Z,4.50
2023-11-01T11:09:24.558Z,6.30
2023-11-01T11:10:23.966Z,6.20
2023-11-01T11:11:23.937Z,4.30
2023-11-01T11:12:23.918Z,4.40
2023-11-01T11:13:23.906Z,4.40
2023-11-01T11:14:23.856Z,4.00
2023-11-01T11:15:23.829Z,4.70
2023-11-01T11:16:23.838Z,5.30
2023-11-01T11:17:23.775Z,6.30
2023-11-01T11:18:23.749Z,4.40
2023-11-01T11:19:23.721Z,6.60
2023-11-01T11:20:23.694Z,5.00
2023-11-01T11:21:23.669Z,3.90
2023-11-01T11:22:23.644Z,4.70
2023-11-01T11:23:23.621Z,5.50
2023-11-01T11:24:23.589Z,4.20
2023-11-01T11:25:23.566Z,5.20
2023-11-01T11:26:23.535Z,4.10
2023-11-01T11:27:23.509Z,4.20
2023-11-01T11:28:23.504Z,5.10
2023-11-01T11:29:23.478Z,3.80
2023-11-01T11:30:23.428Z,4.80
2023-11-01T11:31:23.412Z,4.30
2023-11-01T11:32:23.394Z,5.00
2023-11-01T11:33:23.452Z,4.00
2023-11-01T11:34:23.326Z,3.90
2023-11-01T11:35:23.293Z,5.90
2023-11-01T11:36:23.266Z,4.80
2023-11-01T11:37:23.241Z,5.30
2023-11-01T11:38:23.214Z,5.70
2023-11-01T11:39:23.190Z,5.00
2023-11-01T11:40:23.161Z,6.20
2023-11-01T11:41:23.153Z,4.30
2023-11-01T11:42:23.108Z,4.30
2023-11-01T11:43:23.086Z,6.80
2023-11-01T11:44:23.052Z,4.00
2023-11-01T11:45:23.048Z,4.60
2023-11-01T11:46:23.037Z,4.80
2023-11-01T11:47:22.974Z,6.00
2023-11-01T11:48:23.046Z,4.60
2023-11-01T11:49:22.919Z,6.00
2023-11-01T11:50:22.892Z,3.90
2023-11-01T11:51:22.866Z,5.10
2023-11-01T11:52:22.869Z,3.90
2023-11-01T11:53:24.441Z,4.50
2023-11-01T11:54:22.789Z,4.90
2023-11-01T11:55:22.762Z,4.50
2023-11-01T11:56:22.734Z,6.10
2023-11-01T11:57:22.706Z,3.80
2023-11-01T11:58:22.681Z,6.00
2023-11-01T11:59:22.667Z,4.50
2023-11-01T12:00:22.626Z,4.00
2023-11-01T12:01:22.654Z,4.30
2023-11-01T12:02:22.584Z,5.70
2023-11-01T12:03:22.625Z,4.20
2023-11-01T12:04:22.618Z,4.70
2023-11-01T12:05:22.493Z,5.10
2023-11-01T12:06:22.474Z,7.30
2023-11-01T12:07:22.609Z,5.30
2023-11-01T12:08:22.417Z,5.30
2023-11-01T12:09:22.395Z,5.90
2023-11-01T12:10:22.366Z,5.10
2023-11-01T12:11:22.335Z,4.60
2023-11-01T12:12:22.315Z,5.20
2023-11-01T12:13:22.286Z,6.10
2023-11-01T12:14:22.277Z,5.30
2023-11-01T12:15:22.234Z,5.40
2023-11-01T12:16:22.234Z,5.80
2023-11-01T12:17:22.196Z,7.00
2023-11-01T12:18:22.241Z,5.80
2023-11-01T12:19:22.123Z,5.20
2023-11-01T12:20:22.098Z,6.10
2023-11-01T12:21:22.071Z,5.50
2023-11-01T12:22:22.054Z,5.40
2023-11-01T12:23:22.020Z,4.80
2023-11-01T12:24:21.994Z,8.10
2023-11-01T12:25:21.970Z,9.30
2023-11-01T12:26:21.940Z,6.20
2023-11-01T12:27:21.912Z,5.90
2023-11-01T12:28:21.883Z,5.30
2023-11-01T12:29:21.859Z,7.00
2023-11-01T12:30:21.854Z,5.20
2023-11-01T12:31:21.840Z,9.00
2023-11-01T12:32:21.794Z,6.50
2023-11-01T12:33:21.931Z,6.70
2023-11-01T12:34:21.752Z,10.70
2023-11-01T12:35:21.705Z,6.60
2023-11-01T12:36:21.674Z,5.30
2023-11-01T12:37:21.654Z,6.10
2023-11-01T12:38:21.636Z,5.80
2023-11-01T12:39:21.595Z,7.30
2023-11-01T12:40:21.575Z,10.60
2023-11-01T12:41:21.544Z,8.30
2023-11-01T12:42:21.542Z,9.20
2023-11-01T12:43:21.493Z,6.30
2023-11-01T12:44:21.465Z,6.00
2023-11-01T12:45:21.583Z,5.20
2023-11-01T12:46:21.440Z,5.90
2023-11-01T12:47:21.384Z,8.60
2023-11-01T12:48:21.450Z,7.40
2023-11-01T12:49:21.351Z,7.00
2023-11-01T12:50:21.310Z,5.80
2023-11-01T12:51:21.283Z,5.70
2023-11-01T12:52:21.256Z,4.60
2023-11-01T12:53:21.226Z,5.40
2023-11-01T12:54:21.202Z,5.00
2023-11-01T12:55:21.222Z,7.50
2023-11-01T12:56:21.148Z,5.10
2023-11-01T12:57:21.122Z,6.50
2023-11-01T12:58:21.097Z,5.00
2023-11-01T12:59:21.075Z,5.10
2023-11-01T13:00:21.470Z,4.70
2023-11-01T13:01:21.061Z,5.80
2023-11-01T13:02:20.993Z,4.60
2023-11-01T13:03:21.122Z,6.80
2023-11-01T13:04:20.967Z,4.70
2023-11-01T13:05:20.971Z,7.90
2023-11-01T13:06:20.925Z,6.90
2023-11-01T13:07:20.854Z,4.80
2023-11-01T13:08:20.832Z,5.60
2023-11-01T13:09:20.808Z,9.10
2023-11-01T13:10:20.777Z,5.20
2023-11-01T13:11:20.750Z,5.10
2023-11-01T13:12:20.743Z,5.40
2023-11-01T13:13:20.703Z,6.60
2023-11-01T13:14:20.668Z,5.80
2023-11-01T13:15:20.914Z,4.80
2023-11-01T13:16:20.679Z,7.20
2023-11-01T13:17:20.587Z,4.80